首页
METAR-TAF:

METAR-TAF

机场 :

尚贝里 / 艾克斯-就业辅导组班, 法国

纬度: 45-39N, 经度: 005-53E, 海拔: 235米

当前天气观测

该预报发布于32分钟前的01:00 UTC
风速2节,风向多变
温度 10°C
湿度 93%
气压 1018 hPa
能见度10公里或以上
1500米以下无云,无积雨云

METAR: LFLB 170100Z AUTO VRB02KT CAVOK 10/09 Q1018 TEMPO 3000 BR

时间: 03:32 (01:32 UTC)

预报

该预报发布于2小时和32分钟前的23:00 UTC
预报有效从17日的 00点(UTC)到 17日的 24点(UTC)
风速4节,风向多变
能见度10公里或以上
1500米以下无云,无积雨云
几率 30% :
短暂存在
从 17日的 00点(UTC)到 17日的 07点(UTC)
能見度: 3000
轻雾
成为
从 17日的 09点(UTC)到 17日的 11点(UTC)
风速6节,风向
短暂存在
从 17日的 15点(UTC)到 17日的 22点(UTC)
风速5节,风向多变
多云层高于5000英尺
小雨

TAF: LFLB 162300Z 1700/1724 VRB04KT CAVOK PROB30 TEMPO 1700/1707 3000 BR BECMG 1709/1711 18006KT TEMPO 1715/1722 VRB05KT -RA BKN050

超过4000个机场的气象观测和天气预报(METAR&TAF报告)。

可查询的气象台以黄色和红色小点在地图上表示。

将鼠标移到小点上方,可查看气象台名称。

然后点击查看天气观测和预报。

如需切换地图:点击带黑十字的绿色按钮放大地图;点击带横线的绿色按钮缩小地图;或者点击绿色箭头查看邻近地区的地图。


METAR-TAF: